Time;durP1;ratioP1;P1;durP2;ratioP2;P2;SDS_P1;SDS_P2;PMS_P1;PMS_P2;Temp;Humidity;BMP_temperature;BMP_pressure;BME280_temperature;BME280_humidity;BME280_pressure;Samples;Min_cycle;Max_cycle;Signal;HPM_P1;HPM_P2
2021/11/16 00:01:25;;;;;;;;;;;;;;;6.80;100.00;100435.16;5073194;28;19913;-32
2021/11/16 00:03:51;;;;;;;;;;;;;;;6.74;100.00;100430.66;5072821;28;19912;-32
2021/11/16 00:06:17;;;;;;;;;;;;;;;6.65;100.00;100430.03;5072846;28;20015;-32
2021/11/16 00:08:43;;;;;;;;;;;;;;;6.63;100.00;100436.53;5072820;28;20006;-32
2021/11/16 00:11:09;;;;;;;;;;;;;;;6.53;100.00;100431.59;5072787;28;19913;-32
2021/11/16 00:13:34;;;;;;;;;;;;;;;6.50;100.00;100425.91;5072537;28;19920;-32
2021/11/16 00:16:00;;;;;;;;;;;;;;;6.46;100.00;100431.59;5072972;28;19926;-33
2021/11/16 00:18:30;;;;;;;;;;;;;;;6.33;100.00;100434.19;5073000;28;19927;-32
2021/11/16 00:20:56;;;;;;;;;;;;;;;6.31;100.00;100422.97;5072605;28;20422;-32
2021/11/16 00:23:25;;;;;;;;;;;;;;;6.31;100.00;100441.50;5072831;28;19912;-33
2021/11/16 00:25:52;;;;;;;;;;;;;;;6.26;100.00;100434.16;5072853;28;20397;-33
2021/11/16 00:28:19;;;;;;;;;;;;;;;6.28;100.00;100445.38;5072769;28;19912;-32
2021/11/16 00:30:45;;;;;;;;;;;;;;;6.31;100.00;100438.84;5072453;28;19919;-32
2021/11/16 00:33:11;;;;;;;;;;;;;;;6.22;100.00;100429.47;5072377;28;20023;-32
2021/11/16 00:35:39;;;;;;;;;;;;;;;6.22;100.00;100424.16;5072617;28;20006;-32
2021/11/16 00:38:09;;;;;;;;;;;;;;;6.24;100.00;100419.47;5072655;28;19912;-32
2021/11/16 00:40:35;;;;;;;;;;;;;;;6.30;100.00;100421.38;5072325;28;19913;-32
2021/11/16 00:43:00;;;;;;;;;;;;;;;6.23;100.00;100423.16;5072564;28;19912;-32
2021/11/16 00:45:27;;;;;;;;;;;;;;;6.26;100.00;100417.47;5072186;28;20403;-32
2021/11/16 00:47:52;;;;;;;;;;;;;;;6.38;100.00;100423.81;5071929;28;20344;-32
2021/11/16 00:50:20;;;;;;;;;;;;;;;6.42;100.00;100422.41;5072117;28;19951;-32
2021/11/16 00:52:46;;;;;;;;;;;;;;;6.54;100.00;100425.31;5073194;28;19912;-32
2021/11/16 00:55:12;;;;;;;;;;;;;;;6.65;100.00;100419.44;5034094;28;1367450;-32
2021/11/16 00:57:37;;;;;;;;;;;;;;;6.75;100.00;100426.16;5093339;28;20331;-33
2021/11/16 01:00:04;;;;;;;;;;;;;;;6.69;100.00;100419.84;5093332;28;20011;-32
2021/11/16 01:02:29;;;;;;;;;;;;;;;6.76;100.00;100423.31;5093303;28;19911;-32
2021/11/16 01:04:55;;;;;;;;;;;;;;;6.72;100.00;100419.44;5093743;28;20280;-33
2021/11/16 01:07:20;;;;;;;;;;;;;;;6.81;100.00;100420.91;5093190;28;19994;-33
2021/11/16 01:09:46;;;;;;;;;;;;;;;6.71;100.00;100415.16;5092760;28;20330;-33
2021/11/16 01:12:13;;;;;;;;;;;;;;;6.64;100.00;100433.69;5092786;28;19920;-32
2021/11/16 01:14:40;;;;;;;;;;;;;;;6.70;100.00;100432.06;5092705;28;20419;-33
2021/11/16 01:17:05;;;;;;;;;;;;;;;6.81;100.00;100435.94;5092827;28;19912;-33
2021/11/16 01:19:31;;;;;;;;;;;;;;;6.70;100.00;100445.31;5093021;28;19995;-33
2021/11/16 01:21:57;;;;;;;;;;;;;;;6.44;100.00;100449.50;5093016;28;20276;-33
2021/11/16 01:24:22;;;;;;;;;;;;;;;6.59;100.00;100441.44;5092680;28;19962;-33
2021/11/16 01:26:49;;;;;;;;;;;;;;;6.60;100.00;100442.22;5092720;28;19930;-32
2021/11/16 01:29:15;;;;;;;;;;;;;;;6.60;100.00;100443.03;5092746;28;20299;-33
2021/11/16 01:31:40;;;;;;;;;;;;;;;6.60;100.00;100436.94;5092263;28;19912;-32
2021/11/16 01:34:07;;;;;;;;;;;;;;;6.63;100.00;100449.78;5092724;28;19912;-33
2021/11/16 01:36:33;;;;;;;;;;;;;;;6.68;100.00;100439.41;5092536;28;19912;-33
2021/11/16 01:38:59;;;;;;;;;;;;;;;6.72;100.00;100445.91;5092767;28;19969;-34
2021/11/16 01:41:25;;;;;;;;;;;;;;;6.75;100.00;100445.50;5092431;28;20296;-33
2021/11/16 01:43:51;;;;;;;;;;;;;;;6.76;100.00;100439.22;5092434;28;19998;-34
2021/11/16 01:46:18;;;;;;;;;;;;;;;6.74;100.00;100435.97;5092360;28;19991;-33
2021/11/16 01:48:48;;;;;;;;;;;;;;;6.72;100.00;100434.53;5092654;28;20002;-33
2021/11/16 01:51:15;;;;;;;;;;;;;;;6.71;100.00;100448.78;5092628;28;19912;-33
2021/11/16 01:53:41;;;;;;;;;;;;;;;6.74;100.00;100451.84;5092239;28;19916;-32
2021/11/16 01:56:07;;;;;;;;;;;;;;;6.80;100.00;100448.41;5092829;28;20024;-33
2021/11/16 01:58:33;;;;;;;;;;;;;;;6.83;100.00;100461.25;5092282;28;20391;-33
2021/11/16 02:01:01;;;;;;;;;;;;;;;6.80;100.00;100444.94;5094619;28;19916;-33
2021/11/16 02:03:26;;;;;;;;;;;;;;;6.81;100.00;100455.34;5096757;28;19916;-33
2021/11/16 02:05:56;;;;;;;;;;;;;;;6.75;100.00;100457.94;5096331;28;20394;-33
2021/11/16 02:08:22;;;;;;;;;;;;;;;6.75;100.00;100456.13;5097218;28;19912;-33
2021/11/16 02:10:49;;;;;;;;;;;;;;;6.80;100.00;100444.94;5096248;28;19962;-33
2021/11/16 02:13:17;;;;;;;;;;;;;;;6.81;100.00;100452.69;5096155;28;19912;-33
2021/11/16 02:15:43;;;;;;;;;;;;;;;6.76;100.00;100460.41;5096056;28;20315;-33
2021/11/16 02:18:10;;;;;;;;;;;;;;;6.75;100.00;100442.88;5096143;28;19912;-33
2021/11/16 02:20:37;;;;;;;;;;;;;;;6.76;100.00;100441.84;5096127;28;19919;-33
2021/11/16 02:23:05;;;;;;;;;;;;;;;6.77;100.00;100442.69;5096045;28;20298;-33
2021/11/16 02:25:31;;;;;;;;;;;;;;;6.74;100.00;100435.97;5096238;28;19912;-32
2021/11/16 02:27:57;;;;;;;;;;;;;;;6.76;100.00;100425.97;5095914;28;20303;-33
2021/11/16 02:30:24;;;;;;;;;;;;;;;6.83;100.00;100434.75;5096195;28;19995;-32
2021/11/16 02:32:51;;;;;;;;;;;;;;;6.80;100.00;100437.81;5095759;28;19937;-33
2021/11/16 02:35:17;;;;;;;;;;;;;;;6.76;100.00;100441.06;5096025;28;19911;-32
2021/11/16 02:37:42;;;;;;;;;;;;;;;6.76;100.00;100438.41;5096861;28;20316;-33
2021/11/16 02:40:08;;;;;;;;;;;;;;;6.77;100.00;100424.97;5095716;28;19999;-33
2021/11/16 02:42:35;;;;;;;;;;;;;;;6.79;100.00;100430.06;5095970;28;19919;-33
2021/11/16 02:45:01;;;;;;;;;;;;;;;6.80;100.00;100440.44;5095841;28;19938;-33
2021/11/16 02:47:26;;;;;;;;;;;;;;;6.77;100.00;100437.41;5094368;28;20391;-33
2021/11/16 02:49:53;;;;;;;;;;;;;;;6.70;100.00;100449.81;5095546;28;19912;-33
2021/11/16 02:52:18;;;;;;;;;;;;;;;6.69;100.00;100441.03;5095437;28;20437;-33
2021/11/16 02:54:44;;;;;;;;;;;;;;;6.75;100.00;100440.22;5095137;28;19920;-33
2021/11/16 02:57:11;;;;;;;;;;;;;;;6.81;100.00;100435.94;5095323;28;20069;-33
2021/11/16 02:59:37;;;;;;;;;;;;;;;6.82;100.00;100435.75;5095340;28;20407;-33
2021/11/16 03:02:03;;;;;;;;;;;;;;;6.88;100.00;100430.69;5095288;28;19946;-33
2021/11/16 03:04:33;;;;;;;;;;;;;;;6.88;100.00;100430.69;5095170;28;19919;-33
2021/11/16 03:06:58;;;;;;;;;;;;;;;6.93;100.00;100438.81;5095478;28;19950;-33
2021/11/16 03:09:25;;;;;;;;;;;;;;;6.96;100.00;100433.13;5095163;28;20006;-32
2021/11/16 03:11:50;;;;;;;;;;;;;;;6.94;100.00;100432.53;5094615;28;19922;-33
2021/11/16 03:14:16;;;;;;;;;;;;;;;6.92;100.00;100437.22;5095064;28;19999;-33
2021/11/16 03:16:41;;;;;;;;;;;;;;;6.98;100.00;100437.22;5094863;28;19912;-33
2021/11/16 03:19:07;;;;;;;;;;;;;;;7.00;100.00;100445.78;5094976;28;19935;-33
2021/11/16 03:21:33;;;;;;;;;;;;;;;7.03;100.00;100441.09;5094931;28;19912;-33
2021/11/16 03:23:58;;;;;;;;;;;;;;;7.00;100.00;100442.31;5094915;28;19912;-33
2021/11/16 03:26:26;;;;;;;;;;;;;;;7.03;100.00;100452.50;5095049;28;19965;-33
2021/11/16 03:28:52;;;;;;;;;;;;;;;7.05;100.00;100445.19;5094726;28;19912;-33
2021/11/16 03:33:47;;;;;;;;;;;;;;;7.03;100.00;100435.78;5094657;28;19912;-33
2021/11/16 03:36:13;;;;;;;;;;;;;;;7.03;100.00;100431.31;5095408;28;19912;-34
2021/11/16 03:38:39;;;;;;;;;;;;;;;7.10;100.00;100437.44;5094590;28;20014;-33
2021/11/16 03:41:05;;;;;;;;;;;;;;;7.04;100.00;100437.44;5094553;28;19919;-33
2021/11/16 03:43:33;;;;;;;;;;;;;;;7.10;100.00;100431.31;5094841;28;19912;-33
2021/11/16 03:45:59;;;;;;;;;;;;;;;7.00;100.00;100440.50;5094355;28;20384;-32
2021/11/16 03:48:26;;;;;;;;;;;;;;;7.06;100.00;100427.44;5094377;28;19914;-32
2021/11/16 03:50:51;;;;;;;;;;;;;;;6.99;100.00;100432.75;5094266;28;20368;-33
2021/11/16 03:53:17;;;;;;;;;;;;;;;7.05;100.00;100418.69;5095169;28;19965;-32
2021/11/16 03:55:43;;;;;;;;;;;;;;;6.98;100.00;100433.75;5094000;28;19917;-33
2021/11/16 03:58:10;;;;;;;;;;;;;;;7.06;100.00;100438.88;5094556;28;19912;-32
2021/11/16 04:00:46;;;;;;;;;;;;;;;7.10;100.00;100439.28;5094194;28;19919;-33
2021/11/16 04:03:13;;;;;;;;;;;;;;;7.10;100.00;100439.28;5094104;28;19965;-33
2021/11/16 04:05:38;;;;;;;;;;;;;;;7.05;100.00;100444.34;5094873;28;19939;-33
2021/11/16 04:08:04;;;;;;;;;;;;;;;7.01;100.00;100449.25;5094329;28;19966;-33
2021/11/16 04:10:30;;;;;;;;;;;;;;;7.03;100.00;100443.75;5093944;28;20380;-33
2021/11/16 04:12:55;;;;;;;;;;;;;;;7.09;100.00;100448.22;5094176;28;19937;-33
2021/11/16 04:15:22;;;;;;;;;;;;;;;7.09;100.00;100440.28;5093839;28;20394;-33
2021/11/16 04:17:48;;;;;;;;;;;;;;;7.11;100.00;100444.38;5094118;28;20002;-33
2021/11/16 04:20:15;;;;;;;;;;;;;;;7.10;100.00;100445.38;5094445;28;20404;-33
2021/11/16 04:22:41;;;;;;;;;;;;;;;7.06;100.00;100446.81;5093221;28;19912;-34
2021/11/16 04:25:07;;;;;;;;;;;;;;;7.12;100.00;100459.25;5093655;28;20395;-33
2021/11/16 04:27:33;;;;;;;;;;;;;;;7.19;100.00;100456.59;5093664;28;20467;-33
2021/11/16 04:29:58;;;;;;;;;;;;;;;7.18;100.00;100452.34;5093585;28;20006;-32
2021/11/16 04:32:24;;;;;;;;;;;;;;;7.24;100.00;100461.28;5094279;28;19952;-33
2021/11/16 04:34:49;;;;;;;;;;;;;;;7.20;100.00;100460.09;5093634;28;19916;-32
2021/11/16 04:37:15;;;;;;;;;;;;;;;7.25;100.00;100455.78;5093434;28;19915;-33
2021/11/16 04:39:40;;;;;;;;;;;;;;;7.27;100.00;100460.91;5093737;28;20002;-33
2021/11/16 04:42:06;;;;;;;;;;;;;;;7.32;100.00;100461.09;5093384;28;19936;-32
2021/11/16 04:44:32;;;;;;;;;;;;;;;7.29;100.00;100451.72;5093243;28;19922;-33
2021/11/16 04:46:59;;;;;;;;;;;;;;;7.29;100.00;100467.63;5093238;28;19991;-33
2021/11/16 04:49:30;;;;;;;;;;;;;;;7.27;100.00;100458.25;5093244;28;19911;-33
2021/11/16 04:54:41;;;;;;;;;;;;;;;7.33;100.00;100457.44;5093495;28;20392;-33
2021/11/16 05:05:07;;;;;;;;;;;;;;;7.29;100.00;100472.13;5093618;28;20351;-33
2021/11/16 05:07:33;;;;;;;;;;;;;;;7.26;100.00;100468.03;5092893;28;19908;-33
2021/11/16 05:09:59;;;;;;;;;;;;;;;7.25;100.00;100477.00;5092885;28;19912;-33
2021/11/16 05:12:27;;;;;;;;;;;;;;;7.35;100.00;100477.41;5092796;28;19919;-32
2021/11/16 05:14:53;;;;;;;;;;;;;;;7.36;100.00;100471.09;5092811;28;20387;-33
2021/11/16 05:17:18;;;;;;;;;;;;;;;7.44;100.00;100480.69;5092694;28;19912;-33
2021/11/16 05:19:44;;;;;;;;;;;;;;;7.47;100.00;100479.47;5092693;28;19912;-33
2021/11/16 05:22:10;;;;;;;;;;;;;;;7.37;100.00;100477.22;5092658;28;19915;-33
2021/11/16 05:24:38;;;;;;;;;;;;;;;7.53;100.00;100478.63;5092679;28;19918;-33
2021/11/16 05:27:04;;;;;;;;;;;;;;;7.63;100.00;100487.00;5092866;28;19912;-33
2021/11/16 05:29:30;;;;;;;;;;;;;;;7.89;100.00;100490.66;5092914;28;20300;-33
2021/11/16 05:31:56;;;;;;;;;;;;;;;7.97;100.00;100485.16;5092471;28;20402;-32
2021/11/16 05:34:21;;;;;;;;;;;;;;;8.07;100.00;100492.66;5092743;28;19912;-33
2021/11/16 05:36:47;;;;;;;;;;;;;;;8.10;100.00;100496.75;5092435;28;20440;-33
2021/11/16 05:39:12;;;;;;;;;;;;;;;8.21;100.00;100496.94;5092474;28;19912;-32
2021/11/16 05:41:38;;;;;;;;;;;;;;;8.18;100.00;100493.88;5092383;28;19916;-33
2021/11/16 05:44:04;;;;;;;;;;;;;;;8.25;100.00;100502.63;5092765;28;20002;-33
2021/11/16 05:46:30;;;;;;;;;;;;;;;8.34;100.00;100506.69;5092394;28;19923;-33
2021/11/16 05:48:56;;;;;;;;;;;;;;;8.58;100.00;100504.41;5092696;28;19912;-33
2021/11/16 05:51:23;;;;;;;;;;;;;;;8.69;100.00;100510.88;5092376;28;19912;-32
2021/11/16 05:53:57;;;;;;;;;;;;;;;8.64;100.00;100508.88;5092245;28;19919;-33
2021/11/16 05:56:23;;;;;;;;;;;;;;;8.35;100.00;100508.34;5092166;28;19923;-34
2021/11/16 05:58:52;;;;;;;;;;;;;;;8.25;100.00;100502.63;5092625;28;19982;-34
2021/11/16 06:01:22;;;;;;;;;;;;;;;8.06;100.00;100509.63;5092614;28;20004;-33
2021/11/16 06:03:52;;;;;;;;;;;;;;;7.85;100.00;100511.47;5092277;28;20683;-33
2021/11/16 06:06:19;;;;;;;;;;;;;;;7.96;100.00;100506.59;5092737;28;19920;-32
2021/11/16 06:08:48;;;;;;;;;;;;;;;7.88;100.00;100519.06;5092187;28;19912;-33
2021/11/16 06:11:13;;;;;;;;;;;;;;;8.01;100.00;100514.75;5092183;28;19918;-33
2021/11/16 06:13:39;;;;;;;;;;;;;;;7.99;100.00;100508.84;5092100;28;20002;-33
2021/11/16 06:16:04;;;;;;;;;;;;;;;8.08;100.00;100502.28;5092053;28;19955;-33
2021/11/16 06:18:30;;;;;;;;;;;;;;;8.13;100.00;100504.31;5092387;28;19923;-33
2021/11/16 06:20:55;;;;;;;;;;;;;;;8.04;100.00;100509.81;5092124;28;20418;-33
2021/11/16 06:23:21;;;;;;;;;;;;;;;8.02;100.00;100508.41;5092069;28;19912;-33
2021/11/16 06:25:46;;;;;;;;;;;;;;;7.98;100.00;100517.81;5092052;28;19955;-33
2021/11/16 06:28:12;;;;;;;;;;;;;;;7.91;100.00;100507.19;5091944;28;19912;-33
2021/11/16 06:30:37;;;;;;;;;;;;;;;8.02;100.00;100513.72;5092073;28;20010;-33
2021/11/16 06:33:03;;;;;;;;;;;;;;;8.01;100.00;100515.53;5091874;28;19919;-33
2021/11/16 06:35:29;;;;;;;;;;;;;;;8.00;100.00;100513.09;5092029;28;19923;-33
2021/11/16 06:37:54;;;;;;;;;;;;;;;8.04;100.00;100516.97;5091838;28;20380;-33
2021/11/16 06:40:20;;;;;;;;;;;;;;;8.09;100.00;100525.16;5091796;28;20057;-32
2021/11/16 06:42:46;;;;;;;;;;;;;;;8.00;100.00;100521.06;5092239;28;20398;-32
2021/11/16 06:45:12;;;;;;;;;;;;;;;8.02;100.00;100514.53;5091906;28;19912;-33
2021/11/16 06:47:37;;;;;;;;;;;;;;;8.01;100.00;100525.34;5094970;28;20295;-33
2021/11/16 06:50:03;;;;;;;;;;;;;;;7.92;100.00;100526.59;5095539;28;19912;-33
2021/11/16 06:52:32;;;;;;;;;;;;;;;7.91;100.00;100528.41;5095398;28;19916;-33
2021/11/16 06:54:58;;;;;;;;;;;;;;;7.95;100.00;100528.84;5094368;28;20367;-33
2021/11/16 06:57:27;;;;;;;;;;;;;;;7.92;100.00;100526.59;5094715;28;19912;-33
2021/11/16 06:59:53;;;;;;;;;;;;;;;7.96;100.00;100514.56;5094635;28;20440;-32
2021/11/16 07:02:22;;;;;;;;;;;;;;;8.03;100.00;100516.16;5095418;28;19916;-33
2021/11/16 07:04:48;;;;;;;;;;;;;;;7.96;100.00;100520.66;5093142;28;20366;-33
2021/11/16 07:07:14;;;;;;;;;;;;;;;8.07;100.00;100521.88;5092948;28;19912;-33
2021/11/16 07:09:40;;;;;;;;;;;;;;;8.06;100.00;100515.75;5093009;28;19931;-32
2021/11/16 07:12:11;;;;;;;;;;;;;;;8.02;100.00;100517.19;5092917;28;20437;-33
2021/11/16 07:14:37;;;;;;;;;;;;;;;8.16;100.00;100515.34;5093294;28;19919;-33
2021/11/16 07:17:04;;;;;;;;;;;;;;;8.17;100.00;100516.13;5092735;28;20318;-33
2021/11/16 07:19:34;;;;;;;;;;;;;;;8.20;100.00;100521.84;5094225;28;19916;-33
2021/11/16 07:22:03;;;;;;;;;;;;;;;8.14;100.00;100522.69;5094924;28;19916;-33
2021/11/16 07:24:30;;;;;;;;;;;;;;;8.13;100.00;100530.84;5095200;28;20023;-32
2021/11/16 07:27:00;;;;;;;;;;;;;;;8.11;100.00;100528.41;5094748;28;19969;-33
2021/11/16 07:29:34;;;;;;;;;;;;;;;8.12;100.00;100534.53;5094796;28;19976;-32
2021/11/16 07:32:00;;;;;;;;;;;;;;;8.14;100.00;100532.50;5094542;28;19923;-33
2021/11/16 07:34:28;;;;;;;;;;;;;;;8.05;100.00;100527.38;5094628;28;19916;-33
2021/11/16 07:36:58;;;;;;;;;;;;;;;8.13;100.00;100526.34;5094718;28;19912;-33
2021/11/16 07:39:24;;;;;;;;;;;;;;;8.12;100.00;100526.56;5094619;28;19916;-33
2021/11/16 07:41:50;;;;;;;;;;;;;;;8.04;100.00;100525.75;5094495;28;19912;-33
2021/11/16 07:44:17;;;;;;;;;;;;;;;8.01;100.00;100531.47;5094749;28;20268;-33
2021/11/16 07:46:53;;;;;;;;;;;;;;;7.95;100.00;100534.94;5094636;28;19912;-33
2021/11/16 07:49:19;;;;;;;;;;;;;;;8.04;100.00;100543.53;5095240;28;19919;-33
2021/11/16 07:51:44;;;;;;;;;;;;;;;8.10;100.00;100533.91;5094351;28;20349;-32
2021/11/16 07:54:10;;;;;;;;;;;;;;;8.14;100.00;100527.97;5094310;28;20019;-33
2021/11/16 07:56:36;;;;;;;;;;;;;;;8.14;100.00;100533.28;5094397;28;20343;-33
2021/11/16 07:59:04;;;;;;;;;;;;;;;8.14;100.00;100538.59;5092971;28;19912;-32
2021/11/16 08:04:08;;;;;;;;;;;;;;;8.22;100.00;100538.41;5094145;28;20055;-33
2021/11/16 08:06:37;;;;;;;;;;;;;;;8.19;100.00;100536.16;5094021;28;19911;-33
2021/11/16 08:09:18;;;;;;;;;;;;;;;8.16;100.00;100531.28;5094313;28;19912;-32
2021/11/16 08:11:51;;;;;;;;;;;;;;;8.25;100.00;100534.50;5094802;28;19962;-33
2021/11/16 08:14:17;;;;;;;;;;;;;;;8.19;100.00;100546.78;5094285;28;19967;-33
2021/11/16 08:16:53;;;;;;;;;;;;;;;8.22;100.00;100542.88;5093825;28;20421;-33
2021/11/16 08:19:22;;;;;;;;;;;;;;;8.19;100.00;100545.94;5093829;28;19943;-32
2021/11/16 08:21:48;;;;;;;;;;;;;;;8.18;100.00;100544.34;5094032;28;19912;-32
2021/11/16 08:24:15;;;;;;;;;;;;;;;8.18;100.00;100542.47;5093814;28;20010;-33
2021/11/16 08:26:42;;;;;;;;;;;;;;;8.34;100.00;100541.22;5093669;28;20339;-33
2021/11/16 08:29:09;;;;;;;;;;;;;;;8.68;100.00;100549.94;5093601;28;19912;-33
2021/11/16 08:31:42;;;;;;;;;;;;;;;8.66;100.00;100546.69;5093897;28;20349;-32
2021/11/16 08:34:08;;;;;;;;;;;;;;;8.71;100.00;100540.75;5093441;28;19918;-33
2021/11/16 08:36:42;;;;;;;;;;;;;;;8.88;100.00;100535.75;5093478;28;19947;-32
2021/11/16 08:39:08;;;;;;;;;;;;;;;8.69;100.00;100542.78;5093421;28;20003;-33
2021/11/16 08:41:34;;;;;;;;;;;;;;;8.70;100.00;100539.09;5093412;28;19916;-33
2021/11/16 08:44:18;;;;;;;;;;;;;;;8.86;100.00;100530.63;5093332;28;19916;-32
2021/11/16 08:46:45;;;;;;;;;;;;;;;8.96;100.00;100537.34;5093584;28;19919;-32
2021/11/16 08:49:31;;;;;;;;;;;;;;;9.04;100.00;100529.13;5093187;28;19977;-33
2021/11/16 08:51:59;;;;;;;;;;;;;;;9.11;100.00;100536.03;5093125;28;19912;-33
2021/11/16 08:54:26;;;;;;;;;;;;;;;9.09;100.00;100531.97;5092755;28;19922;-32
2021/11/16 08:56:52;;;;;;;;;;;;;;;9.02;100.00;100533.84;5093016;28;20442;-33
2021/11/16 08:59:20;;;;;;;;;;;;;;;8.95;100.00;100539.19;5093210;28;20007;-33
2021/11/16 09:01:56;;;;;;;;;;;;;;;9.15;100.00;100532.94;5092956;28;19912;-32
2021/11/16 09:04:23;;;;;;;;;;;;;;;9.25;100.00;100528.00;5092938;28;20353;-33
2021/11/16 09:06:49;;;;;;;;;;;;;;;9.30;100.00;100520.16;5092932;28;20383;-33
2021/11/16 09:09:14;;;;;;;;;;;;;;;9.13;100.00;100532.34;5092444;28;19958;-33
2021/11/16 09:11:53;;;;;;;;;;;;;;;9.00;100.00;100520.78;5092809;28;20015;-33
2021/11/16 09:14:19;;;;;;;;;;;;;;;9.01;100.00;100510.94;5092858;28;19912;-33
2021/11/16 09:16:44;;;;;;;;;;;;;;;9.03;100.00;100507.03;5092565;28;19923;-33
2021/11/16 09:19:22;;;;;;;;;;;;;;;9.10;100.00;100499.84;5092891;28;19920;-33
2021/11/16 09:21:48;;;;;;;;;;;;;;;8.85;100.00;100505.09;5092765;28;19912;-32
2021/11/16 09:24:17;;;;;;;;;;;;;;;8.73;100.00;100504.13;5092978;28;19918;-33
2021/11/16 09:27:11;;;;;;;;;;;;;;;8.79;100.00;100492.63;5092629;28;19912;-33
2021/11/16 09:29:38;;;;;;;;;;;;;;;8.78;100.00;100484.88;5092913;28;20011;-33
2021/11/16 09:32:11;;;;;;;;;;;;;;;8.77;100.00;100494.72;5092537;28;19919;-32
2021/11/16 09:34:41;;;;;;;;;;;;;;;8.80;100.00;100488.97;5092560;28;19919;-33
2021/11/16 09:37:08;;;;;;;;;;;;;;;8.96;100.00;100487.66;5092510;28;19912;-33
2021/11/16 09:39:43;;;;;;;;;;;;;;;8.93;100.00;100483.56;5092438;28;19919;-33
2021/11/16 09:42:11;;;;;;;;;;;;;;;8.95;100.00;100486.03;5092506;28;19912;-33
2021/11/16 09:44:43;;;;;;;;;;;;;;;8.96;100.00;100479.69;5092424;28;19912;-34
2021/11/16 09:47:12;;;;;;;;;;;;;;;9.01;100.00;100484.34;5092467;28;20012;-33
2021/11/16 09:49:39;;;;;;;;;;;;;;;9.02;100.00;100478.81;5092633;28;19912;-33
2021/11/16 09:52:13;;;;;;;;;;;;;;;8.99;100.00;100473.13;5092581;28;20006;-33
2021/11/16 09:54:45;;;;;;;;;;;;;;;8.92;100.00;100475.81;5092155;28;19923;-33
2021/11/16 09:57:14;;;;;;;;;;;;;;;8.98;100.00;100469.63;5092222;28;19958;-34
2021/11/16 09:59:42;;;;;;;;;;;;;;;8.95;100.00;100474.59;5092054;28;19923;-33
2021/11/16 10:02:14;;;;;;;;;;;;;;;8.89;100.00;100466.41;5092509;28;19912;-33
2021/11/16 10:04:46;;;;;;;;;;;;;;;8.84;100.00;100463.59;5092525;28;20003;-34
2021/11/16 10:07:11;;;;;;;;;;;;;;;8.73;100.00;100461.59;5092126;28;19991;-32
2021/11/16 10:09:41;;;;;;;;;;;;;;;8.71;100.00;100453.03;5092036;28;19946;-33
2021/11/16 10:12:07;;;;;;;;;;;;;;;8.83;100.00;100458.50;5091967;28;19916;-33
2021/11/16 10:14:33;;;;;;;;;;;;;;;8.80;100.00;100458.94;5092382;28;19959;-33
2021/11/16 10:16:58;;;;;;;;;;;;;;;8.91;100.00;100466.19;5092090;28;20356;-33
2021/11/16 10:19:24;;;;;;;;;;;;;;;8.87;100.00;100457.84;5091932;28;19919;-32
2021/11/16 10:21:49;;;;;;;;;;;;;;;8.89;100.00;100461.09;5094184;28;19959;-33
2021/11/16 10:24:31;;;;;;;;;;;;;;;8.81;100.00;100452.56;5095917;28;19912;-33
2021/11/16 10:27:02;;;;;;;;;;;;;;;8.83;100.00;100455.84;5095974;28;20295;-33
2021/11/16 10:29:27;;;;;;;;;;;;;;;8.83;100.00;100455.84;5095863;28;19912;-32
2021/11/16 10:31:53;;;;;;;;;;;;;;;8.82;100.00;100443.56;5095888;28;19969;-33
2021/11/16 10:34:18;;;;;;;;;;;;;;;8.93;100.00;100445.56;5096136;28;19969;-33
2021/11/16 10:36:44;;;;;;;;;;;;;;;9.00;100.00;100445.50;5096156;28;20414;-33
2021/11/16 10:39:10;;;;;;;;;;;;;;;8.87;100.00;100449.06;5095754;28;19916;-33
2021/11/16 10:41:37;;;;;;;;;;;;;;;8.92;100.00;100438.59;5096391;28;19969;-33
2021/11/16 10:44:08;;;;;;;;;;;;;;;8.97;100.00;100440.59;5095704;28;19919;-32
2021/11/16 10:46:35;;;;;;;;;;;;;;;9.06;100.00;100444.66;5095639;28;20398;-33
2021/11/16 10:49:05;;;;;;;;;;;;;;;9.06;100.00;100444.66;5095500;28;19916;-33
2021/11/16 10:51:32;;;;;;;;;;;;;;;9.05;100.00;100432.38;5096162;28;19912;-33
2021/11/16 10:53:58;;;;;;;;;;;;;;;8.98;100.00;100435.06;5095453;28;20010;-33
2021/11/16 10:56:27;;;;;;;;;;;;;;;9.10;100.00;100436.03;5095286;28;20008;-33
2021/11/16 10:58:53;;;;;;;;;;;;;;;9.04;100.00;100436.06;5095344;28;19912;-32
2021/11/16 11:01:23;;;;;;;;;;;;;;;9.03;100.00;100437.91;5095652;28;19919;-33
2021/11/16 11:03:55;;;;;;;;;;;;;;;9.02;100.00;100438.94;5095328;28;19912;-33
2021/11/16 11:06:26;;;;;;;;;;;;;;;8.95;100.00;100437.38;5095166;28;20394;-33
2021/11/16 11:09:01;;;;;;;;;;;;;;;9.00;100.00;100434.88;5095156;28;20455;-33
2021/11/16 11:11:28;;;;;;;;;;;;;;;8.92;100.00;100428.78;5095239;28;20034;-33
2021/11/16 11:13:59;;;;;;;;;;;;;;;8.85;100.00;100417.41;5095337;28;20291;-33
2021/11/16 11:16:25;;;;;;;;;;;;;;;8.96;100.00;100420.41;5095063;28;20457;-33
2021/11/16 11:18:51;;;;;;;;;;;;;;;8.97;100.00;100414.88;5094982;28;19908;-33
2021/11/16 11:21:28;;;;;;;;;;;;;;;9.04;100.00;100418.25;5093793;28;19919;-33
2021/11/16 11:23:57;;;;;;;;;;;;;;;9.06;100.00;100410.91;5095273;28;20306;-33
2021/11/16 11:26:38;;;;;;;;;;;;;;;9.03;100.00;100411.34;5095222;28;19912;-33
2021/11/16 11:29:23;;;;;;;;;;;;;;;9.01;100.00;100409.91;5095115;28;19977;-33
2021/11/16 11:31:51;;;;;;;;;;;;;;;8.95;100.00;100410.78;5094846;28;20287;-33
2021/11/16 11:34:18;;;;;;;;;;;;;;;8.95;100.00;100411.59;5094710;28;20406;-33
2021/11/16 11:36:43;;;;;;;;;;;;;;;8.98;100.00;100405.03;5094756;28;19912;-33
2021/11/16 11:39:16;;;;;;;;;;;;;;;9.03;100.00;100399.88;5094611;28;19912;-33
2021/11/16 11:41:49;;;;;;;;;;;;;;;9.07;100.00;100399.25;5094919;28;19911;-33
2021/11/16 11:44:17;;;;;;;;;;;;;;;9.06;100.00;100402.94;5094858;28;20004;-33
2021/11/16 11:46:47;;;;;;;;;;;;;;;9.07;100.00;100401.06;5094521;28;19912;-33
2021/11/16 11:49:12;;;;;;;;;;;;;;;8.99;100.00;100404.81;5094430;28;20329;-33
2021/11/16 11:51:38;;;;;;;;;;;;;;;8.96;100.00;100401.78;5094757;28;19919;-33
2021/11/16 11:54:04;;;;;;;;;;;;;;;9.01;100.00;100393.97;5094136;28;19912;-34
2021/11/16 11:56:30;;;;;;;;;;;;;;;8.94;100.00;100394.00;5095117;28;19916;-32
2021/11/16 11:58:58;;;;;;;;;;;;;;;8.93;100.00;100381.75;5094508;28;19961;-33
2021/11/16 12:01:28;;;;;;;;;;;;;;;8.89;100.00;100389.34;5094225;28;19947;-33
2021/11/16 12:03:55;;;;;;;;;;;;;;;8.93;100.00;100392.41;5094525;28;19916;-33
2021/11/16 12:06:24;;;;;;;;;;;;;;;8.89;100.00;100391.19;5094338;28;20447;-33
2021/11/16 12:08:53;;;;;;;;;;;;;;;8.82;100.00;100387.75;5094015;28;19969;-33
2021/11/16 12:11:19;;;;;;;;;;;;;;;8.84;100.00;100388.34;5094014;28;20353;-33
2021/11/16 12:13:46;;;;;;;;;;;;;;;8.66;100.00;100378.47;5094572;28;19912;-33
2021/11/16 12:16:30;;;;;;;;;;;;;;;8.59;100.00;100383.84;5094210;28;19912;-33
2021/11/16 12:19:06;;;;;;;;;;;;;;;8.51;100.00;100384.06;5093830;28;19912;-32
2021/11/16 12:21:34;;;;;;;;;;;;;;;8.48;100.00;100387.16;5093823;28;20015;-33
2021/11/16 12:24:01;;;;;;;;;;;;;;;8.51;100.00;100376.91;5093806;28;19912;-33
2021/11/16 12:26:28;;;;;;;;;;;;;;;8.43;100.00;100386.94;5094042;28;19912;-32
2021/11/16 12:29:09;;;;;;;;;;;;;;;8.41;100.00;100384.50;5093603;28;20306;-33
2021/11/16 12:31:35;;;;;;;;;;;;;;;8.37;100.00;100378.00;5093676;28;19919;-32
2021/11/16 12:34:00;;;;;;;;;;;;;;;8.26;100.00;100378.66;5093785;28;19912;-33
2021/11/16 12:36:29;;;;;;;;;;;;;;;8.28;100.00;100368.63;5093527;28;19935;-33
2021/11/16 12:38:55;;;;;;;;;;;;;;;8.32;100.00;100369.84;5093428;28;19965;-33
2021/11/16 12:41:27;;;;;;;;;;;;;;;8.27;100.00;100364.38;5093468;28;20383;-33
2021/11/16 12:43:53;;;;;;;;;;;;;;;8.24;100.00;100369.06;5092746;28;19908;-33
2021/11/16 12:46:19;;;;;;;;;;;;;;;8.13;100.00;100372.38;5093660;28;19912;-33
2021/11/16 12:48:51;;;;;;;;;;;;;;;8.10;100.00;100371.97;5093608;28;19908;-33
2021/11/16 12:51:20;;;;;;;;;;;;;;;8.16;100.00;100374.63;5093287;28;19916;-33
2021/11/16 12:53:47;;;;;;;;;;;;;;;8.22;100.00;100375.59;5093441;28;20387;-33